Time;durP1;ratioP1;P1;durP2;ratioP2;P2;SDS_P1;SDS_P2;PMS_P1;PMS_P2;Temp;Humidity;BMP_temperature;BMP_pressure;BME280_temperature;BME280_humidity;BME280_pressure;Samples;Min_cycle;Max_cycle;Signal;HPM_P1;HPM_P2
2023/06/11 00:01:24;;;;;;;;;16.50;15.75;;;;;;;;4987422;28;49685;-74
2023/06/11 00:03:52;;;;;;;;;17.00;16.00;;;;;;;;4985601;28;50032;-74
2023/06/11 00:06:20;;;;;;;;;16.25;16.00;;;;;;;;4982326;28;49673;-74
2023/06/11 00:08:45;;;;;;;;;17.25;17.00;;;;;;;;4989672;28;50012;-75
2023/06/11 00:11:10;;;;;;;;;15.75;15.25;;;;;;;;4989581;28;50055;-75
2023/06/11 00:13:36;;;;;;;;;14.25;13.75;;;;;;;;4988242;28;49960;-74
2023/06/11 00:16:01;;;;;;;;;17.50;15.00;;;;;;;;4989493;28;49863;-74
2023/06/11 00:18:26;;;;;;;;;16.50;15.25;;;;;;;;4989543;28;50029;-75
2023/06/11 00:20:51;;;;;;;;;14.25;14.25;;;;;;;;4989756;28;49979;-76
2023/06/11 00:23:17;;;;;;;;;13.75;12.75;;;;;;;;4989365;28;50086;-74
2023/06/11 00:25:42;;;;;;;;;15.00;12.25;;;;;;;;4986343;28;50132;-74
2023/06/11 00:28:07;;;;;;;;;11.75;11.75;;;;;;;;4988290;28;49851;-74
2023/06/11 00:30:32;;;;;;;;;9.50;8.75;;;;;;;;4984914;28;49715;-74
2023/06/11 00:32:57;;;;;;;;;11.75;11.75;;;;;;;;4988697;28;51166;-74
2023/06/11 00:35:23;;;;;;;;;7.25;7.25;;;;;;;;4985262;28;50026;-74
2023/06/11 00:37:49;;;;;;;;;9.50;9.50;;;;;;;;4983446;28;50162;-74
2023/06/11 00:40:15;;;;;;;;;12.00;10.50;;;;;;;;4989508;28;50031;-75
2023/06/11 00:42:40;;;;;;;;;8.00;8.00;;;;;;;;4989195;28;50133;-74
2023/06/11 00:45:06;;;;;;;;;12.00;12.00;;;;;;;;4989018;28;49811;-75
2023/06/11 00:47:32;;;;;;;;;9.50;9.00;;;;;;;;4989420;28;49840;-74
2023/06/11 00:49:58;;;;;;;;;15.25;12.50;;;;;;;;4983462;28;50125;-75
2023/06/11 00:52:25;;;;;;;;;12.25;10.75;;;;;;;;4988975;28;51078;-75
2023/06/11 00:54:50;;;;;;;;;12.00;12.00;;;;;;;;4988695;28;49672;-75
2023/06/11 00:57:17;;;;;;;;;9.50;9.50;;;;;;;;4989199;28;49632;-75
2023/06/11 00:59:46;;;;;;;;;9.75;9.75;;;;;;;;4988311;28;50158;-75
2023/06/11 01:02:17;;;;;;;;;8.50;8.50;;;;;;;;4988914;28;49790;-75
2023/06/11 01:04:44;;;;;;;;;9.50;8.50;;;;;;;;4988591;28;49653;-74
2023/06/11 01:07:12;;;;;;;;;11.50;11.50;;;;;;;;4989026;28;49898;-74
2023/06/11 01:09:37;;;;;;;;;10.25;8.25;;;;;;;;4988905;28;49962;-74
2023/06/11 01:12:03;;;;;;;;;10.25;9.00;;;;;;;;4988586;28;50836;-74
2023/06/11 01:14:28;;;;;;;;;8.00;8.00;;;;;;;;4988467;28;49775;-73
2023/06/11 01:17:04;;;;;;;;;12.50;11.25;;;;;;;;4988904;28;49874;-73
2023/06/11 01:19:45;;;;;;;;;9.75;9.75;;;;;;;;4987252;28;49684;-73
2023/06/11 01:22:18;;;;;;;;;10.75;10.25;;;;;;;;4988791;28;49767;-74
2023/06/11 01:24:43;;;;;;;;;11.50;11.00;;;;;;;;4988753;28;49948;-74
2023/06/11 01:27:27;;;;;;;;;11.00;10.60;;;;;;;;4987168;28;49844;-73
2023/06/11 01:29:52;;;;;;;;;13.50;12.75;;;;;;;;4981711;28;50094;-74
2023/06/11 01:32:20;;;;;;;;;14.25;12.25;;;;;;;;4986786;28;52660;-74
2023/06/11 01:34:45;;;;;;;;;11.25;11.25;;;;;;;;4988628;28;49680;-75
2023/06/11 01:37:11;;;;;;;;;11.00;11.00;;;;;;;;4990402;28;50338;-77
2023/06/11 08:45:48;;;;;;;;;23.25;20.25;;;;;;;;4975986;28;50181;-74
2023/06/11 08:48:15;;;;;;;;;17.00;17.00;;;;;;;;4968953;28;50799;-73
2023/06/11 08:50:41;;;;;;;;;18.25;17.00;;;;;;;;4961668;28;49923;-73
2023/06/11 08:53:07;;;;;;;;;18.25;18.25;;;;;;;;4959227;28;49896;-74
2023/06/11 08:55:32;;;;;;;;;17.25;16.25;;;;;;;;4951597;28;49766;-73
2023/06/11 08:57:58;;;;;;;;;21.00;21.00;;;;;;;;4953007;28;51636;-72
2023/06/11 09:00:23;;;;;;;;;18.25;18.25;;;;;;;;4952384;28;50173;-73
2023/06/11 09:02:48;;;;;;;;;18.00;16.25;;;;;;;;4955851;28;49995;-73
2023/06/11 09:05:13;;;;;;;;;18.75;18.25;;;;;;;;4972610;28;49646;-73
2023/06/11 09:07:47;;;;;;;;;16.50;15.50;;;;;;;;4957750;28;49816;-78
2023/06/11 09:10:12;;;;;;;;;18.75;16.25;;;;;;;;4968858;28;50022;-76
2023/06/11 09:12:37;;;;;;;;;21.50;21.00;;;;;;;;4967620;28;49872;-75
2023/06/11 09:15:06;;;;;;;;;21.25;21.25;;;;;;;;4968700;28;49962;-76
2023/06/11 09:17:35;;;;;;;;;20.25;20.25;;;;;;;;4959301;28;50543;-81
2023/06/11 09:20:02;;;;;;;;;21.25;21.25;;;;;;;;4977859;28;49917;-75
2023/06/11 09:22:28;;;;;;;;;23.00;20.50;;;;;;;;4969027;28;49860;-74
2023/06/11 09:24:54;;;;;;;;;23.50;22.00;;;;;;;;4965686;28;50266;-72
2023/06/11 09:27:22;;;;;;;;;25.00;21.75;;;;;;;;4968756;28;51548;-75
2023/06/11 09:29:47;;;;;;;;;21.50;21.50;;;;;;;;4972293;28;49747;-75
2023/06/11 09:32:12;;;;;;;;;25.00;22.25;;;;;;;;4964655;28;50109;-76
2023/06/11 09:34:39;;;;;;;;;24.00;23.75;;;;;;;;4961813;28;49698;-76
2023/06/11 09:37:08;;;;;;;;;23.75;22.50;;;;;;;;4951863;28;51700;-78
2023/06/11 09:39:34;;;;;;;;;23.50;22.50;;;;;;;;4967616;28;49684;-75
2023/06/11 09:41:59;;;;;;;;;24.25;24.25;;;;;;;;4962622;28;49951;-76
2023/06/11 09:44:27;;;;;;;;;24.00;22.25;;;;;;;;4975995;28;49585;-76
2023/06/11 09:46:52;;;;;;;;;24.50;23.50;;;;;;;;4960920;28;51697;-73
2023/06/11 09:49:17;;;;;;;;;22.50;21.00;;;;;;;;4952101;28;50113;-74
2023/06/11 09:51:43;;;;;;;;;30.50;29.50;;;;;;;;4952035;28;50135;-74
2023/06/11 09:54:09;;;;;;;;;27.00;26.25;;;;;;;;4965612;28;49776;-73
2023/06/11 09:56:37;;;;;;;;;27.75;24.75;;;;;;;;4957085;28;50125;-74
2023/06/11 09:59:02;;;;;;;;;30.25;26.00;;;;;;;;4957732;28;49846;-73
2023/06/11 10:01:29;;;;;;;;;30.00;29.25;;;;;;;;4963587;28;50007;-71
2023/06/11 10:03:55;;;;;;;;;28.50;27.75;;;;;;;;4965169;28;49984;-72
2023/06/11 10:06:22;;;;;;;;;31.00;27.50;;;;;;;;4973596;28;50559;-72
2023/06/11 10:08:49;;;;;;;;;38.75;32.00;;;;;;;;4975665;28;49943;-73
2023/06/11 10:11:15;;;;;;;;;32.25;29.25;;;;;;;;4975214;28;49658;-72
2023/06/11 10:13:40;;;;;;;;;28.25;28.00;;;;;;;;4967459;28;49821;-72
2023/06/11 10:16:09;;;;;;;;;23.25;22.75;;;;;;;;4969882;28;50900;-73
2023/06/11 10:18:34;;;;;;;;;30.75;27.25;;;;;;;;4970175;28;49649;-77
2023/06/11 10:21:00;;;;;;;;;27.75;26.25;;;;;;;;4962696;28;49992;-78
2023/06/11 10:23:36;;;;;;;;;31.25;29.50;;;;;;;;4968706;28;49905;-83
2023/06/11 10:26:01;;;;;;;;;31.75;30.75;;;;;;;;4966039;28;51470;-84
2023/06/11 10:28:56;;;;;;;;;28.00;27.50;;;;;;;;4965949;28;49713;-82
2023/06/11 10:31:28;;;;;;;;;32.25;29.25;;;;;;;;4961566;28;50089;-79
2023/06/11 10:34:01;;;;;;;;;27.25;25.75;;;;;;;;4980090;28;50016;-73
2023/06/11 10:36:31;;;;;;;;;28.75;26.75;;;;;;;;4965831;28;50401;-75
2023/06/11 10:39:08;;;;;;;;;28.00;28.00;;;;;;;;4967572;28;49773;-74
2023/06/11 10:41:38;;;;;;;;;32.25;31.25;;;;;;;;4970532;28;50059;-75
2023/06/11 10:44:03;;;;;;;;;36.50;33.75;;;;;;;;4962026;28;49691;-75
2023/06/11 10:46:28;;;;;;;;;32.25;30.75;;;;;;;;4979937;28;50979;-75
2023/06/11 10:48:54;;;;;;;;;33.50;31.25;;;;;;;;4963022;28;49793;-74
2023/06/11 10:51:20;;;;;;;;;43.25;33.25;;;;;;;;4974932;28;49670;-74
2023/06/11 10:53:53;;;;;;;;;28.50;27.25;;;;;;;;4964973;28;49984;-73
2023/06/11 10:56:19;;;;;;;;;42.50;37.25;;;;;;;;4973127;28;50097;-77
2023/06/11 10:58:49;;;;;;;;;34.50;32.00;;;;;;;;4970180;28;51028;-73
2023/06/11 11:01:15;;;;;;;;;32.25;31.25;;;;;;;;4963359;28;49733;-76
2023/06/11 11:03:40;;;;;;;;;29.25;29.00;;;;;;;;4972812;28;49737;-77
2023/06/11 11:06:05;;;;;;;;;35.75;32.25;;;;;;;;4958204;28;50222;-77
2023/06/11 11:08:30;;;;;;;;;36.50;31.25;;;;;;;;4963094;28;49766;-77
2023/06/11 11:10:57;;;;;;;;;33.75;30.25;;;;;;;;4953889;28;49740;-77
2023/06/11 11:13:22;;;;;;;;;39.25;35.50;;;;;;;;4953497;28;50070;-77
2023/06/11 11:15:47;;;;;;;;;33.75;32.25;;;;;;;;4955274;28;50537;-78
2023/06/11 11:18:13;;;;;;;;;37.75;34.25;;;;;;;;4958508;28;50303;-76
2023/06/11 11:20:38;;;;;;;;;33.75;32.25;;;;;;;;4958329;28;49841;-75
2023/06/11 11:23:05;;;;;;;;;28.75;27.00;;;;;;;;4955447;28;49683;-77
2023/06/11 11:25:31;;;;;;;;;33.00;32.00;;;;;;;;4958703;28;49769;-76
2023/06/11 11:27:57;;;;;;;;;32.00;31.25;;;;;;;;4956414;28;49776;-77
2023/06/11 11:30:22;;;;;;;;;30.50;30.00;;;;;;;;4961270;28;49703;-77
2023/06/11 11:32:48;;;;;;;;;35.00;32.25;;;;;;;;4958228;28;49702;-78
2023/06/11 11:35:16;;;;;;;;;34.00;31.75;;;;;;;;4965521;28;49795;-78
2023/06/11 11:37:45;;;;;;;;;34.25;32.50;;;;;;;;4959486;28;49933;-77
2023/06/11 11:40:10;;;;;;;;;32.50;30.25;;;;;;;;4967104;28;49968;-77
2023/06/11 11:42:49;;;;;;;;;29.50;29.25;;;;;;;;4960254;28;49673;-77
2023/06/11 11:45:15;;;;;;;;;33.50;31.00;;;;;;;;4968865;28;50488;-77
2023/06/11 11:47:42;;;;;;;;;29.00;28.50;;;;;;;;4964073;28;49706;-77
2023/06/11 11:50:17;;;;;;;;;29.50;28.00;;;;;;;;4968348;28;49782;-77
2023/06/11 11:52:44;;;;;;;;;30.25;30.00;;;;;;;;4968094;28;49720;-77
2023/06/11 11:55:09;;;;;;;;;27.00;24.50;;;;;;;;4967480;28;50472;-77
2023/06/11 11:57:37;;;;;;;;;29.50;29.50;;;;;;;;4968946;28;49629;-77
2023/06/11 12:00:03;;;;;;;;;28.50;26.00;;;;;;;;4970295;28;49915;-77
2023/06/11 12:02:28;;;;;;;;;27.50;27.50;;;;;;;;4972507;28;50321;-77
2023/06/11 12:04:57;;;;;;;;;29.50;27.50;;;;;;;;4960996;28;49747;-78
2023/06/11 12:07:22;;;;;;;;;28.00;27.00;;;;;;;;4952298;28;49793;-77
2023/06/11 12:09:48;;;;;;;;;25.75;24.25;;;;;;;;4952063;28;49823;-78
2023/06/11 12:12:13;;;;;;;;;28.25;26.50;;;;;;;;4953836;28;49631;-77
2023/06/11 12:14:38;;;;;;;;;27.25;27.00;;;;;;;;4953136;28;50479;-78
2023/06/11 12:17:07;;;;;;;;;28.75;27.50;;;;;;;;4956305;28;49897;-77
2023/06/11 12:19:32;;;;;;;;;25.00;25.00;;;;;;;;4959211;28;49888;-78
2023/06/11 12:21:58;;;;;;;;;24.75;23.50;;;;;;;;4958139;28;49956;-78
2023/06/11 12:24:23;;;;;;;;;28.75;26.25;;;;;;;;4955120;28;50970;-78
2023/06/11 12:26:49;;;;;;;;;23.50;23.50;;;;;;;;4960826;28;49677;-78
2023/06/11 12:29:14;;;;;;;;;29.50;28.75;;;;;;;;4956249;28;49853;-78
2023/06/11 12:31:40;;;;;;;;;31.50;30.25;;;;;;;;4962180;28;49679;-78
2023/06/11 12:34:06;;;;;;;;;28.50;25.75;;;;;;;;4957654;28;50660;-78
2023/06/11 12:36:32;;;;;;;;;30.75;29.25;;;;;;;;4963746;28;49764;-78
2023/06/11 12:38:59;;;;;;;;;30.50;28.50;;;;;;;;4959593;28;50035;-78
2023/06/11 12:41:26;;;;;;;;;33.25;30.75;;;;;;;;4964840;28;49688;-78
2023/06/11 12:43:51;;;;;;;;;29.25;28.00;;;;;;;;4961296;28;51736;-78
2023/06/11 12:46:16;;;;;;;;;33.75;30.50;;;;;;;;4965207;28;49913;-78
2023/06/11 12:48:41;;;;;;;;;62.25;47.50;;;;;;;;4963641;28;49752;-78
2023/06/11 12:51:07;;;;;;;;;48.25;39.75;;;;;;;;4969031;28;49887;-78
2023/06/11 12:53:32;;;;;;;;;41.00;36.00;;;;;;;;4982400;28;31941;-77
2023/06/11 12:55:57;;;;;;;;;56.50;44.50;;;;;;;;4981638;28;31152;-78
2023/06/11 12:58:22;;;;;;;;;53.75;45.50;;;;;;;;4984289;28;31088;-78
2023/06/11 13:00:48;;;;;;;;;53.50;43.50;;;;;;;;4987645;28;31379;-78
2023/06/11 13:03:13;;;;;;;;;60.00;48.75;;;;;;;;4986957;28;31158;-78
2023/06/11 13:05:38;;;;;;;;;63.00;51.00;;;;;;;;4982235;28;42168;-77
2023/06/11 13:08:03;;;;;;;;;67.75;53.25;;;;;;;;4979894;28;46400;-77
2023/06/11 13:10:30;;;;;;;;;62.00;50.75;;;;;;;;4973404;28;44674;-78
2023/06/11 13:12:56;;;;;;;;;62.50;50.75;;;;;;;;4970560;28;31875;-77
2023/06/11 13:15:21;;;;;;;;;60.00;48.75;;;;;;;;4969114;28;46346;-78
2023/06/11 13:17:47;;;;;;;;;62.00;50.25;;;;;;;;4969815;28;31106;-78
2023/06/11 13:24:56;;;;;;;;;;;;;;;;;;2906665;28;285245296;-77
2023/06/11 13:27:21;;;;;;;;;66.75;53.75;;;;;;;;4983734;28;60696;-78
2023/06/11 13:29:47;;;;;;;;;90.33;73.33;;;;;;;;4999774;28;8848;-79
2023/06/11 13:32:12;;;;;;;;;83.33;78.33;;;;;;;;4997162;28;8858;-80
2023/06/11 13:34:37;;;;;;;;;80.00;72.33;;;;;;;;4994041;28;9672;-80
2023/06/11 13:37:02;;;;;;;;;90.67;79.00;;;;;;;;4999170;28;8816;-79
2023/06/11 13:39:28;;;;;;;;;66.50;52.75;;;;;;;;4987677;28;8919;-79
2023/06/11 13:41:53;;;;;;;;;58.00;47.00;;;;;;;;5002323;28;8838;-80
2023/06/11 13:44:18;;;;;;;;;59.75;48.50;;;;;;;;4995286;28;9573;-80
2023/06/11 13:46:43;;;;;;;;;64.00;51.50;;;;;;;;5004097;28;8940;-79
2023/06/11 13:49:09;;;;;;;;;68.00;56.00;;;;;;;;4995302;28;8860;-76
2023/06/11 13:51:34;;;;;;;;;69.00;54.50;;;;;;;;5008224;28;8835;-76
2023/06/11 13:54:00;;;;;;;;;76.00;63.75;;;;;;;;5011758;28;8810;-75
2023/06/11 13:56:25;;;;;;;;;80.33;73.00;;;;;;;;5010695;28;10044;-76
2023/06/11 13:58:50;;;;;;;;;68.25;58.00;;;;;;;;4999435;28;8851;-76
2023/06/11 14:01:16;;;;;;;;;69.50;55.50;;;;;;;;5016748;28;8963;-78
2023/06/11 14:03:41;;;;;;;;;71.00;57.75;;;;;;;;5000363;28;9592;-78
2023/06/11 14:06:07;;;;;;;;;64.25;51.75;;;;;;;;5005284;28;8842;-78
2023/06/11 14:08:32;;;;;;;;;65.50;52.00;;;;;;;;5002575;28;8820;-78
2023/06/11 14:10:58;;;;;;;;;55.00;45.75;;;;;;;;4990566;28;11641;-79
2023/06/11 14:13:23;;;;;;;;;58.25;47.50;;;;;;;;4989487;28;8840;-78
2023/06/11 14:15:48;;;;;;;;;58.75;48.50;;;;;;;;4992831;28;8852;-78
2023/06/11 14:18:13;;;;;;;;;69.75;53.75;;;;;;;;4998894;28;8834;-79
2023/06/11 14:20:39;;;;;;;;;67.50;54.50;;;;;;;;4995531;28;8908;-79
2023/06/11 14:23:05;;;;;;;;;67.50;53.00;;;;;;;;4991592;28;8860;-79
2023/06/11 14:25:30;;;;;;;;;66.25;51.50;;;;;;;;4997060;28;8825;-79
2023/06/11 14:27:55;;;;;;;;;61.75;49.75;;;;;;;;4992958;28;11627;-79
2023/06/11 14:30:21;;;;;;;;;69.25;57.00;;;;;;;;5006670;28;8851;-79
2023/06/11 14:32:46;;;;;;;;;63.50;51.50;;;;;;;;5002464;28;8837;-80
2023/06/11 14:35:11;;;;;;;;;64.75;53.00;;;;;;;;5001305;28;8835;-81
2023/06/11 14:37:36;;;;;;;;;50.75;43.00;;;;;;;;4995290;28;8866;-81
2023/06/11 14:40:01;;;;;;;;;50.75;43.00;;;;;;;;5013331;28;8842;-80
2023/06/11 14:42:27;;;;;;;;;58.25;47.00;;;;;;;;4995740;28;8820;-81
2023/06/11 14:44:52;;;;;;;;;58.00;47.75;;;;;;;;5007357;28;8970;-81
2023/06/11 14:47:17;;;;;;;;;53.75;45.00;;;;;;;;5000367;28;8840;-81
2023/06/11 14:49:42;;;;;;;;;58.75;48.25;;;;;;;;5008730;28;8831;-81
2023/06/11 14:52:10;;;;;;;;;63.00;50.50;;;;;;;;5003463;28;8874;-80
2023/06/11 14:54:36;;;;;;;;;57.25;48.25;;;;;;;;5010171;28;8921;-81
2023/06/11 14:57:09;;;;;;;;;54.50;44.50;;;;;;;;5010992;28;11578;-82
2023/06/11 14:59:34;;;;;;;;;49.00;42.00;;;;;;;;5020919;28;9860;-82
2023/06/11 15:01:59;;;;;;;;;49.75;41.00;;;;;;;;4997538;28;11629;-82
2023/06/11 15:04:25;;;;;;;;;49.25;41.75;;;;;;;;4992364;28;8854;-80
2023/06/11 15:06:50;;;;;;;;;50.25;41.75;;;;;;;;4998630;28;8852;-79
2023/06/11 15:09:15;;;;;;;;;47.50;39.25;;;;;;;;4999345;28;8964;-81
2023/06/11 15:11:40;;;;;;;;;47.75;40.25;;;;;;;;5010366;28;8850;-81
2023/06/11 15:14:06;;;;;;;;;43.00;37.75;;;;;;;;4998340;28;8824;-80
2023/06/11 15:16:31;;;;;;;;;38.25;34.00;;;;;;;;4994880;28;8859;-81
2023/06/11 15:18:56;;;;;;;;;33.25;30.00;;;;;;;;5006554;28;8831;-79
2023/06/11 15:21:21;;;;;;;;;36.00;32.00;;;;;;;;4997765;28;9613;-82
2023/06/11 15:23:46;;;;;;;;;42.75;36.25;;;;;;;;5001489;28;8835;-73
2023/06/11 15:26:11;;;;;;;;;34.75;33.00;;;;;;;;5003683;28;8907;-73
2023/06/11 15:28:36;;;;;;;;;44.25;38.25;;;;;;;;5015104;28;8843;-73
2023/06/11 15:31:02;;;;;;;;;20.50;20.25;;;;;;;;5005146;28;8955;-73
2023/06/11 15:33:27;;;;;;;;;47.25;41.50;;;;;;;;5005492;28;8843;-73
2023/06/11 15:35:52;;;;;;;;;46.25;39.50;;;;;;;;5000164;28;8830;-73
2023/06/11 15:38:17;;;;;;;;;52.50;45.25;;;;;;;;5008660;28;8858;-73
2023/06/11 15:40:43;;;;;;;;;53.75;43.75;;;;;;;;4998716;28;8852;-73
2023/06/11 15:43:08;;;;;;;;;53.50;45.00;;;;;;;;5006973;28;8823;-72
2023/06/11 15:45:33;;;;;;;;;53.00;42.50;;;;;;;;5009953;28;10367;-73
2023/06/11 15:47:59;;;;;;;;;50.25;42.25;;;;;;;;5014696;28;8873;-73
2023/06/11 15:50:24;;;;;;;;;46.50;39.75;;;;;;;;5004994;28;8836;-73
2023/06/11 15:52:49;;;;;;;;;46.25;39.75;;;;;;;;5011646;28;8834;-73
2023/06/11 15:55:14;;;;;;;;;40.50;36.75;;;;;;;;4997521;28;8820;-74
2023/06/11 15:57:40;;;;;;;;;51.00;42.75;;;;;;;;4989824;28;8840;-74
2023/06/11 16:00:06;;;;;;;;;45.75;39.25;;;;;;;;4998829;28;8849;-74
2023/06/11 16:02:31;;;;;;;;;40.50;36.25;;;;;;;;4994816;28;8934;-71
2023/06/11 16:04:56;;;;;;;;;42.25;36.00;;;;;;;;4999579;28;11609;-72
2023/06/11 16:07:21;;;;;;;;;39.25;34.75;;;;;;;;5007653;28;8945;-72
2023/06/11 16:09:47;;;;;;;;;29.00;28.00;;;;;;;;4992161;28;8876;-72
2023/06/11 16:12:12;;;;;;;;;35.50;32.00;;;;;;;;4995685;28;8834;-72
2023/06/11 16:14:37;;;;;;;;;35.25;31.75;;;;;;;;5002662;28;8939;-72
2023/06/11 16:17:03;;;;;;;;;31.25;29.50;;;;;;;;4996499;28;8824;-72
2023/06/11 16:19:28;;;;;;;;;28.75;26.75;;;;;;;;5005610;28;9780;-72
2023/06/11 16:21:53;;;;;;;;;33.75;30.25;;;;;;;;5002510;28;9856;-72
2023/06/11 16:24:18;;;;;;;;;28.75;28.00;;;;;;;;4991808;28;8860;-72
2023/06/11 16:26:45;;;;;;;;;26.00;26.00;;;;;;;;4996987;28;9687;-72
2023/06/11 16:29:11;;;;;;;;;31.25;29.50;;;;;;;;5007242;28;8852;-72
2023/06/11 16:31:36;;;;;;;;;31.50;29.50;;;;;;;;5010388;28;11556;-72
2023/06/11 16:34:01;;;;;;;;;30.25;30.00;;;;;;;;4998578;28;8831;-75
2023/06/11 16:36:28;;;;;;;;;30.25;26.25;;;;;;;;4998318;28;10346;-77
2023/06/11 16:38:53;;;;;;;;;40.25;34.75;;;;;;;;5007567;28;8843;-74
2023/06/11 16:41:20;;;;;;;;;27.50;26.25;;;;;;;;4999639;28;11547;-76
2023/06/11 16:43:45;;;;;;;;;30.25;30.25;;;;;;;;5003659;28;8781;-74
2023/06/11 16:46:10;;;;;;;;;27.50;25.50;;;;;;;;5009537;28;11535;-72
2023/06/11 16:48:36;;;;;;;;;29.00;29.00;;;;;;;;5006204;28;8952;-73
2023/06/11 16:51:01;;;;;;;;;29.25;28.25;;;;;;;;5010506;28;8817;-73
2023/06/11 16:53:26;;;;;;;;;30.75;30.25;;;;;;;;5003702;28;8810;-77
2023/06/11 16:55:51;;;;;;;;;26.50;25.25;;;;;;;;5002602;28;8855;-72
2023/06/11 16:58:16;;;;;;;;;25.75;25.25;;;;;;;;5008507;28;8916;-73
2023/06/11 17:00:42;;;;;;;;;26.00;26.00;;;;;;;;5002926;28;8892;-73
2023/06/11 17:03:07;;;;;;;;;24.75;24.75;;;;;;;;5006391;28;9666;-72
2023/06/11 17:05:32;;;;;;;;;27.00;25.75;;;;;;;;4996582;28;8847;-72
2023/06/11 17:07:58;;;;;;;;;29.25;26.50;;;;;;;;5008345;28;8848;-76
2023/06/11 17:10:23;;;;;;;;;27.50;27.00;;;;;;;;5004912;28;8857;-74
2023/06/11 17:12:49;;;;;;;;;26.25;24.75;;;;;;;;5003704;28;8840;-77
2023/06/11 17:15:16;;;;;;;;;27.00;25.25;;;;;;;;4993082;28;8982;-84
2023/06/11 17:17:41;;;;;;;;;26.25;22.75;;;;;;;;5001872;28;11606;-73
2023/06/11 17:20:06;;;;;;;;;23.50;22.50;;;;;;;;5003762;28;11663;-69
2023/06/11 17:22:31;;;;;;;;;22.50;22.50;;;;;;;;4995539;28;8820;-75
2023/06/11 17:24:57;;;;;;;;;24.50;23.50;;;;;;;;5000723;28;8809;-74
2023/06/11 17:27:22;;;;;;;;;25.50;25.50;;;;;;;;5001965;28;9733;-70
2023/06/11 17:29:47;;;;;;;;;25.75;25.00;;;;;;;;5003707;28;8840;-72
2023/06/11 17:32:12;;;;;;;;;25.75;25.25;;;;;;;;4991701;28;8821;-72
2023/06/11 17:34:37;;;;;;;;;27.25;27.00;;;;;;;;5000261;28;8852;-76
2023/06/11 17:37:03;;;;;;;;;23.00;22.50;;;;;;;;5008396;28;8823;-74
2023/06/11 17:39:28;;;;;;;;;21.75;21.00;;;;;;;;4997788;28;8824;-78
2023/06/11 17:41:53;;;;;;;;;26.75;25.75;;;;;;;;5007167;28;9610;-78
2023/06/11 17:44:18;;;;;;;;;21.25;21.25;;;;;;;;5006319;28;8834;-91
2023/06/11 17:46:44;;;;;;;;;30.50;28.50;;;;;;;;4999084;28;8837;-78
2023/06/11 17:49:09;;;;;;;;;28.25;27.25;;;;;;;;5006278;28;8829;-77
2023/06/11 17:51:34;;;;;;;;;23.75;23.25;;;;;;;;4996430;28;9586;-77
2023/06/11 17:54:00;;;;;;;;;28.00;26.50;;;;;;;;4995644;28;8867;-78
2023/06/11 17:56:25;;;;;;;;;27.25;26.25;;;;;;;;5004948;28;9060;-77
2023/06/11 17:58:50;;;;;;;;;27.00;27.00;;;;;;;;5003301;28;8908;-74
2023/06/11 18:01:15;;;;;;;;;29.25;29.25;;;;;;;;4999034;28;8847;-78
2023/06/11 18:03:41;;;;;;;;;22.25;22.25;;;;;;;;4997375;28;8890;-81
2023/06/11 18:06:06;;;;;;;;;28.50;28.00;;;;;;;;5006762;28;8852;-77
2023/06/11 18:08:31;;;;;;;;;28.00;26.25;;;;;;;;4999619;28;8848;-74
2023/06/11 18:10:56;;;;;;;;;24.50;23.25;;;;;;;;4997878;28;8838;-76
2023/06/11 18:13:22;;;;;;;;;19.25;18.25;;;;;;;;4998185;28;8856;-78
2023/06/11 18:15:47;;;;;;;;;23.50;21.50;;;;;;;;5005518;28;8852;-77
2023/06/11 18:18:12;;;;;;;;;22.75;22.00;;;;;;;;4999653;28;8840;-77
2023/06/11 18:20:38;;;;;;;;;21.50;20.00;;;;;;;;5004236;28;8837;-76
2023/06/11 18:23:03;;;;;;;;;23.75;22.25;;;;;;;;5002915;28;8801;-82
2023/06/11 18:25:28;;;;;;;;;22.75;21.00;;;;;;;;5003728;28;8936;-71
2023/06/11 18:27:54;;;;;;;;;19.75;19.75;;;;;;;;5004229;28;8918;-75
2023/06/11 18:30:20;;;;;;;;;19.00;19.00;;;;;;;;5004540;28;8897;-73
2023/06/11 18:32:46;;;;;;;;;22.25;22.00;;;;;;;;5010856;28;8806;-73
2023/06/11 18:35:11;;;;;;;;;25.50;24.50;;;;;;;;4999591;28;11561;-70
2023/06/11 18:37:37;;;;;;;;;20.25;20.25;;;;;;;;5003063;28;8910;-72
2023/06/11 18:40:03;;;;;;;;;18.75;18.75;;;;;;;;5007383;28;8846;-75
2023/06/11 18:42:28;;;;;;;;;21.50;20.50;;;;;;;;5009300;28;8813;-74
2023/06/11 18:44:53;;;;;;;;;15.25;15.25;;;;;;;;5005137;28;11232;-75
2023/06/11 18:47:19;;;;;;;;;15.50;15.25;;;;;;;;5002841;28;8862;-86
2023/06/11 18:49:44;;;;;;;;;22.25;19.25;;;;;;;;5007249;28;8832;-81
2023/06/11 18:52:09;;;;;;;;;16.75;16.00;;;;;;;;5008144;28;8825;-81
2023/06/11 18:54:34;;;;;;;;;17.50;17.50;;;;;;;;5014139;28;8813;-84
2023/06/11 18:57:00;;;;;;;;;17.75;17.75;;;;;;;;5000580;28;8839;-82
2023/06/11 18:59:25;;;;;;;;;19.00;18.00;;;;;;;;5006682;28;8836;-78
2023/06/11 19:01:50;;;;;;;;;18.00;18.00;;;;;;;;4996407;28;8975;-74
2023/06/11 19:04:16;;;;;;;;;21.75;20.50;;;;;;;;5005944;28;8911;-74
2023/06/11 19:06:41;;;;;;;;;22.00;19.25;;;;;;;;5007053;28;8967;-75
2023/06/11 19:09:10;;;;;;;;;18.00;18.00;;;;;;;;5006473;28;8888;-75
2023/06/11 19:11:35;;;;;;;;;20.25;20.00;;;;;;;;5004110;28;9617;-79
2023/06/11 19:14:00;;;;;;;;;18.50;18.50;;;;;;;;5008177;28;11331;-79
2023/06/11 19:16:26;;;;;;;;;19.75;19.75;;;;;;;;5005492;28;8828;-79
2023/06/11 19:18:51;;;;;;;;;10.00;10.00;;;;;;;;5007522;28;8821;-81
2023/06/11 19:21:17;;;;;;;;;8.00;8.00;;;;;;;;4999740;28;8992;-81
2023/06/11 19:23:42;;;;;;;;;7.25;6.75;;;;;;;;5006547;28;8834;-81
2023/06/11 19:26:07;;;;;;;;;9.50;8.25;;;;;;;;5005288;28;8807;-86
2023/06/11 19:28:32;;;;;;;;;10.25;8.25;;;;;;;;5005255;28;8808;-86
2023/06/11 19:30:57;;;;;;;;;15.50;13.50;;;;;;;;5002010;28;8848;-85
2023/06/11 19:33:22;;;;;;;;;9.00;9.00;;;;;;;;5003498;28;8802;-79
2023/06/11 19:35:48;;;;;;;;;3.75;3.75;;;;;;;;5001282;28;8934;-81
2023/06/11 19:38:13;;;;;;;;;5.00;5.00;;;;;;;;5003404;28;8816;-68
2023/06/11 19:40:38;;;;;;;;;22.00;14.75;;;;;;;;4996515;28;8845;-67
2023/06/11 19:43:03;;;;;;;;;9.75;6.25;;;;;;;;5012623;28;8896;-68
2023/06/11 19:45:28;;;;;;;;;7.00;5.75;;;;;;;;4992817;28;8797;-67
2023/06/11 19:47:54;;;;;;;;;8.75;8.75;;;;;;;;4995429;28;8817;-67
2023/06/11 19:50:22;;;;;;;;;7.00;7.00;;;;;;;;4992278;28;8832;-67
2023/06/11 19:52:48;;;;;;;;;7.75;7.00;;;;;;;;5007741;28;9638;-67
2023/06/11 19:55:17;;;;;;;;;7.25;6.50;;;;;;;;4994620;28;10891;-68
2023/06/11 19:57:42;;;;;;;;;10.25;9.75;;;;;;;;4994859;28;10937;-68
2023/06/11 20:00:07;;;;;;;;;14.25;12.50;;;;;;;;5001184;28;11021;-67
2023/06/11 20:02:33;;;;;;;;;9.25;9.25;;;;;;;;4995707;28;8808;-69
2023/06/11 20:04:58;;;;;;;;;7.25;7.00;;;;;;;;5002939;28;8881;-67
2023/06/11 20:07:23;;;;;;;;;8.75;7.75;;;;;;;;5004788;28;8852;-68
2023/06/11 20:09:48;;;;;;;;;8.00;8.00;;;;;;;;5005917;28;8834;-68
2023/06/11 20:12:13;;;;;;;;;8.75;8.75;;;;;;;;5001948;28;8822;-68
2023/06/11 20:14:39;;;;;;;;;10.25;8.25;;;;;;;;4990249;28;8878;-67
2023/06/11 20:17:04;;;;;;;;;7.75;7.75;;;;;;;;4996523;28;8828;-66
2023/06/11 20:19:29;;;;;;;;;4.75;4.75;;;;;;;;5008784;28;8838;-67
2023/06/11 20:21:56;;;;;;;;;5.00;5.00;;;;;;;;4992776;28;8812;-67
2023/06/11 20:24:22;;;;;;;;;6.00;6.00;;;;;;;;5000395;28;8875;-67
2023/06/11 20:26:47;;;;;;;;;6.75;6.25;;;;;;;;4998549;28;11106;-67
2023/06/11 20:29:12;;;;;;;;;8.00;8.00;;;;;;;;4998695;28;8845;-67
2023/06/11 20:31:37;;;;;;;;;9.75;9.25;;;;;;;;5004394;28;8817;-67
2023/06/11 20:34:02;;;;;;;;;11.25;11.25;;;;;;;;5000383;28;8843;-67
2023/06/11 20:36:28;;;;;;;;;12.75;11.50;;;;;;;;5001736;28;8928;-67
2023/06/11 20:38:53;;;;;;;;;15.75;14.00;;;;;;;;5003636;28;8829;-67
2023/06/11 20:41:18;;;;;;;;;15.75;14.75;;;;;;;;5008778;28;8876;-67
2023/06/11 20:43:44;;;;;;;;;19.50;19.50;;;;;;;;5006601;28;8863;-68
2023/06/11 20:46:09;;;;;;;;;23.00;23.00;;;;;;;;5003934;28;8824;-68
2023/06/11 20:48:34;;;;;;;;;23.75;21.00;;;;;;;;5016277;28;8807;-67
2023/06/11 20:50:59;;;;;;;;;25.25;24.25;;;;;;;;5001315;28;8844;-68
2023/06/11 20:53:25;;;;;;;;;28.00;26.50;;;;;;;;4988924;28;8915;-68
2023/06/11 20:55:50;;;;;;;;;31.50;28.50;;;;;;;;4990715;28;8830;-68
2023/06/11 20:58:15;;;;;;;;;31.00;28.00;;;;;;;;4990111;28;8898;-68
2023/06/11 21:00:40;;;;;;;;;30.50;29.00;;;;;;;;4992614;28;8848;-68
2023/06/11 21:03:06;;;;;;;;;34.00;32.00;;;;;;;;4990800;28;8847;-67
2023/06/11 21:05:31;;;;;;;;;29.00;25.75;;;;;;;;4992707;28;8914;-67
2023/06/11 21:07:56;;;;;;;;;32.25;30.00;;;;;;;;4993204;28;8854;-68
2023/06/11 21:10:22;;;;;;;;;35.00;31.25;;;;;;;;5004763;28;8826;-67
2023/06/11 21:12:48;;;;;;;;;27.25;26.00;;;;;;;;5002999;28;8909;-67
2023/06/11 21:15:14;;;;;;;;;31.50;30.25;;;;;;;;5005694;28;9566;-67
2023/06/11 21:17:40;;;;;;;;;31.75;29.75;;;;;;;;4997656;28;11561;-67
2023/06/11 21:20:05;;;;;;;;;35.25;32.25;;;;;;;;4994664;28;8859;-67
2023/06/11 21:22:31;;;;;;;;;34.75;30.50;;;;;;;;4992059;28;9795;-67
2023/06/11 21:24:56;;;;;;;;;29.25;29.25;;;;;;;;4997087;28;8836;-68
2023/06/11 21:27:21;;;;;;;;;24.75;23.25;;;;;;;;4992543;28;8830;-68
2023/06/11 21:29:47;;;;;;;;;28.50;26.75;;;;;;;;4998305;28;8827;-68
